createdAt,value
2017-12-05T00:02:21.977Z,7.10
2017-12-05T00:04:49.587Z,7.10
2017-12-05T00:07:17.202Z,7.00
2017-12-05T00:09:44.850Z,7.20
2017-12-05T00:12:12.500Z,7.10
2017-12-05T00:14:40.111Z,7.10
2017-12-05T00:17:07.797Z,7.20
2017-12-05T00:19:36.168Z,7.30
2017-12-05T00:22:04.551Z,7.30
2017-12-05T00:24:33.423Z,7.40
2017-12-05T00:27:01.052Z,7.30
2017-12-05T00:29:28.723Z,7.30
2017-12-05T00:31:56.761Z,7.30
2017-12-05T00:34:24.431Z,7.30
2017-12-05T00:36:52.065Z,7.20
2017-12-05T00:39:19.668Z,7.20
2017-12-05T00:41:47.836Z,7.30
2017-12-05T00:44:15.491Z,7.30
2017-12-05T00:46:43.163Z,7.20
2017-12-05T00:49:10.818Z,7.30
2017-12-05T00:51:38.408Z,7.10
2017-12-05T00:54:06.085Z,7.10
2017-12-05T00:56:33.666Z,7.10
2017-12-05T00:59:02.027Z,7.10
2017-12-05T01:01:29.642Z,7.10
2017-12-05T01:03:57.303Z,7.10
2017-12-05T01:06:24.917Z,7.10
2017-12-05T01:08:53.285Z,7.20
2017-12-05T01:11:20.915Z,7.20
2017-12-05T01:13:48.541Z,7.20
2017-12-05T01:16:16.229Z,7.30
2017-12-05T01:18:43.862Z,7.30
2017-12-05T01:21:11.501Z,7.30
2017-12-05T01:23:39.168Z,7.20
2017-12-05T01:26:06.788Z,7.10
2017-12-05T01:28:34.404Z,7.10
2017-12-05T01:31:02.891Z,7.00
2017-12-05T01:33:30.568Z,7.00
2017-12-05T01:35:58.232Z,7.00
2017-12-05T01:38:25.844Z,7.10
2017-12-05T01:40:53.465Z,7.00
2017-12-05T01:43:21.121Z,7.00
2017-12-05T01:45:48.781Z,7.00
2017-12-05T01:48:16.428Z,6.90
2017-12-05T01:50:44.178Z,7.00
2017-12-05T01:53:11.808Z,7.00
2017-12-05T01:55:39.598Z,7.10
2017-12-05T01:58:08.152Z,6.90
2017-12-05T02:00:42.083Z,6.90
2017-12-05T02:03:10.500Z,7.10
2017-12-05T02:05:38.093Z,7.10
2017-12-05T02:08:05.938Z,7.00
2017-12-05T02:10:33.546Z,7.00
2017-12-05T02:13:01.226Z,6.80
2017-12-05T02:15:28.946Z,6.80
2017-12-05T02:17:57.651Z,6.80
2017-12-05T02:20:25.266Z,6.80
2017-12-05T02:22:52.886Z,6.70
2017-12-05T02:25:21.249Z,6.70
2017-12-05T02:27:49.653Z,6.50
2017-12-05T02:30:17.996Z,6.60
2017-12-05T02:32:46.733Z,6.60
2017-12-05T02:35:14.445Z,6.60
2017-12-05T02:37:42.058Z,6.60
2017-12-05T02:40:09.690Z,6.70
2017-12-05T02:42:38.090Z,6.60
2017-12-05T02:45:05.744Z,6.60
2017-12-05T02:47:34.106Z,6.70
2017-12-05T02:50:02.548Z,6.70
2017-12-05T02:52:30.145Z,6.60
2017-12-05T02:54:57.859Z,6.60
2017-12-05T02:57:25.612Z,6.70
2017-12-05T02:59:53.221Z,6.80
2017-12-05T03:02:20.908Z,6.90
2017-12-05T03:04:49.262Z,6.80
2017-12-05T03:07:17.023Z,6.80
2017-12-05T03:09:44.694Z,6.70
2017-12-05T03:12:12.381Z,6.90
2017-12-05T03:14:40.006Z,6.90
2017-12-05T03:17:07.672Z,6.70
2017-12-05T03:19:35.264Z,6.60
2017-12-05T03:22:02.889Z,6.70
2017-12-05T03:24:30.510Z,6.70
2017-12-05T03:26:58.101Z,6.60
2017-12-05T03:29:25.750Z,6.60
2017-12-05T03:31:53.370Z,6.60
2017-12-05T03:34:21.714Z,6.60
2017-12-05T03:36:49.304Z,6.50
2017-12-05T03:39:17.673Z,6.50
2017-12-05T03:41:45.311Z,6.40
2017-12-05T03:44:12.891Z,6.50
2017-12-05T03:46:41.278Z,6.50
2017-12-05T03:49:09.828Z,6.60
2017-12-05T03:51:37.492Z,6.60
2017-12-05T03:54:05.133Z,6.60
2017-12-05T03:56:32.722Z,6.50
2017-12-05T03:59:00.325Z,6.50
2017-12-05T04:01:27.960Z,6.40
2017-12-05T04:03:55.544Z,6.40
2017-12-05T04:06:23.180Z,6.40
2017-12-05T04:08:50.770Z,6.30
2017-12-05T04:11:18.402Z,6.30
2017-12-05T04:13:46.009Z,6.30
2017-12-05T04:16:13.646Z,6.30
2017-12-05T04:18:41.746Z,6.30
2017-12-05T04:21:09.407Z,6.30
2017-12-05T04:23:37.030Z,6.30
2017-12-05T04:26:05.369Z,6.30
2017-12-05T04:28:32.957Z,6.30
2017-12-05T04:31:01.307Z,6.10
2017-12-05T04:33:28.981Z,6.10
2017-12-05T04:35:56.601Z,6.10
2017-12-05T04:38:24.267Z,6.10
2017-12-05T04:40:51.876Z,6.00
2017-12-05T04:43:19.541Z,6.10
2017-12-05T04:45:47.149Z,6.10
2017-12-05T04:48:14.803Z,6.20
2017-12-05T04:50:42.460Z,6.20
2017-12-05T04:53:10.079Z,6.20
2017-12-05T04:55:37.713Z,6.20
2017-12-05T04:58:05.402Z,6.20
2017-12-05T05:00:33.086Z,6.20
2017-12-05T05:03:01.440Z,6.20
2017-12-05T05:05:29.069Z,6.20
2017-12-05T05:07:56.687Z,6.20
2017-12-05T05:10:24.413Z,6.20
2017-12-05T05:12:52.049Z,6.20
2017-12-05T05:15:19.671Z,6.20
2017-12-05T05:17:47.387Z,6.20
2017-12-05T05:20:15.023Z,6.30
2017-12-05T05:22:42.618Z,6.40
2017-12-05T05:25:10.257Z,6.30
2017-12-05T05:27:37.917Z,6.30
2017-12-05T05:30:05.555Z,6.30
2017-12-05T05:32:33.212Z,6.30
2017-12-05T05:35:00.877Z,6.30
2017-12-05T05:37:28.581Z,6.30
2017-12-05T05:39:56.234Z,6.30
2017-12-05T05:42:23.840Z,6.30
2017-12-05T05:44:52.253Z,6.40
2017-12-05T05:47:19.912Z,6.30
2017-12-05T05:49:47.509Z,6.40
2017-12-05T05:52:15.116Z,6.30
2017-12-05T05:54:43.532Z,6.30
2017-12-05T05:57:11.105Z,6.30
2017-12-05T05:59:38.724Z,6.40
2017-12-05T06:02:07.085Z,6.40
2017-12-05T06:04:35.437Z,6.50
2017-12-05T06:07:03.063Z,6.50
2017-12-05T06:09:30.663Z,6.40
2017-12-05T06:11:58.287Z,6.40
2017-12-05T06:14:26.181Z,6.40
2017-12-05T06:16:53.851Z,6.40
2017-12-05T06:19:21.502Z,6.40
2017-12-05T06:21:49.115Z,6.50
2017-12-05T06:24:16.721Z,6.40
2017-12-05T06:26:44.396Z,6.50
2017-12-05T06:29:12.254Z,6.50
2017-12-05T06:31:39.894Z,6.50
2017-12-05T06:34:07.519Z,6.40
2017-12-05T06:36:36.058Z,6.40
2017-12-05T06:39:03.734Z,6.40
2017-12-05T06:41:31.359Z,6.50
2017-12-05T06:43:58.981Z,6.30
2017-12-05T06:46:27.444Z,6.40
2017-12-05T06:48:55.084Z,6.40
2017-12-05T06:51:22.747Z,6.50
2017-12-05T06:53:50.367Z,6.50
2017-12-05T06:56:18.069Z,6.40
2017-12-05T06:58:45.675Z,6.30
2017-12-05T07:01:14.115Z,6.40
2017-12-05T07:03:41.715Z,6.40
2017-12-05T07:06:10.621Z,6.40
2017-12-05T07:08:38.327Z,6.40
2017-12-05T07:11:06.007Z,6.50
2017-12-05T07:13:34.451Z,6.50
2017-12-05T07:16:02.835Z,6.50
2017-12-05T07:18:30.499Z,6.40
2017-12-05T07:20:58.136Z,6.40
2017-12-05T07:23:25.737Z,6.30
2017-12-05T07:25:53.402Z,6.40
2017-12-05T07:28:21.078Z,6.40
2017-12-05T07:30:49.607Z,6.50
2017-12-05T07:33:17.329Z,6.50
2017-12-05T07:35:44.956Z,6.60
2017-12-05T07:38:12.822Z,6.60
2017-12-05T07:40:41.205Z,6.60
2017-12-05T07:43:08.893Z,6.70
2017-12-05T07:45:36.556Z,6.70
2017-12-05T07:48:04.213Z,6.50
2017-12-05T07:50:31.865Z,6.50
2017-12-05T07:52:59.512Z,6.40
2017-12-05T07:55:27.139Z,6.60
2017-12-05T07:57:54.854Z,6.60
2017-12-05T08:00:23.232Z,6.60
2017-12-05T08:02:50.996Z,6.60
2017-12-05T08:05:18.652Z,6.70
2017-12-05T08:07:46.385Z,6.70
2017-12-05T08:10:14.028Z,6.90
2017-12-05T08:12:41.867Z,6.80
2017-12-05T08:15:09.527Z,6.80
2017-12-05T08:17:37.385Z,6.90
2017-12-05T08:20:05.201Z,6.60
2017-12-05T08:22:32.964Z,6.60
2017-12-05T08:25:00.664Z,6.50
2017-12-05T08:27:28.328Z,6.60
2017-12-05T08:29:56.023Z,6.60
2017-12-05T08:32:23.655Z,6.60
2017-12-05T08:34:51.300Z,6.50
2017-12-05T08:37:19.070Z,6.60
2017-12-05T08:39:46.752Z,6.70
2017-12-05T08:42:14.632Z,6.70
2017-12-05T08:44:43.030Z,6.80
2017-12-05T08:47:11.502Z,6.90
2017-12-05T08:49:39.993Z,6.80
2017-12-05T08:52:08.478Z,6.90
2017-12-05T08:54:36.906Z,6.90
2017-12-05T08:57:04.598Z,6.90
2017-12-05T08:59:32.287Z,6.90
2017-12-05T09:01:59.951Z,7.00
2017-12-05T09:04:27.627Z,6.90
2017-12-05T09:06:55.195Z,6.90
2017-12-05T09:09:22.812Z,6.90
2017-12-05T09:11:50.514Z,6.80
2017-12-05T09:14:18.112Z,7.00
2017-12-05T09:16:46.635Z,7.10
2017-12-05T09:19:14.251Z,7.20
2017-12-05T09:21:41.935Z,7.00
2017-12-05T09:24:10.592Z,7.00
2017-12-05T09:26:38.215Z,7.00
2017-12-05T09:29:05.917Z,7.20
2017-12-05T09:31:33.620Z,7.20
2017-12-05T09:34:02.062Z,7.10
2017-12-05T09:36:29.707Z,7.10
2017-12-05T09:38:57.506Z,7.10
2017-12-05T09:41:26.084Z,7.10
2017-12-05T09:43:53.829Z,7.10
2017-12-05T09:46:21.416Z,7.20
2017-12-05T09:48:49.906Z,7.20
2017-12-05T09:51:17.565Z,7.10
2017-12-05T09:53:45.238Z,7.10
2017-12-05T09:56:12.922Z,7.00
2017-12-05T09:58:40.838Z,7.10
2017-12-05T10:01:08.500Z,7.20
2017-12-05T10:03:36.114Z,7.20
2017-12-05T10:06:03.792Z,7.30
2017-12-05T10:08:31.386Z,7.40
2017-12-05T10:10:59.048Z,7.40
2017-12-05T10:13:26.674Z,7.30
2017-12-05T10:15:54.303Z,7.40
2017-12-05T10:18:23.557Z,7.50
2017-12-05T10:20:51.318Z,7.50
2017-12-05T10:23:19.725Z,7.50
2017-12-05T10:25:47.334Z,7.50
2017-12-05T10:28:14.955Z,7.50
2017-12-05T10:30:43.990Z,7.40
2017-12-05T10:33:11.669Z,7.40
2017-12-05T10:35:39.333Z,7.40
2017-12-05T10:38:06.955Z,7.20
2017-12-05T10:40:34.845Z,7.20
2017-12-05T10:43:02.501Z,7.30
2017-12-05T10:45:30.116Z,7.40
2017-12-05T10:47:57.737Z,7.50
2017-12-05T10:50:25.340Z,7.50
2017-12-05T10:52:52.965Z,7.50
2017-12-05T10:55:21.352Z,7.50
2017-12-05T10:57:49.085Z,7.50
2017-12-05T11:00:16.755Z,7.50
2017-12-05T11:02:45.257Z,7.50
2017-12-05T11:05:12.914Z,7.40
2017-12-05T11:07:40.610Z,7.20
2017-12-05T11:10:08.271Z,7.30
2017-12-05T11:12:36.060Z,7.60
2017-12-05T11:15:04.549Z,7.60
2017-12-05T11:17:32.253Z,7.60
2017-12-05T11:19:59.922Z,7.60
2017-12-05T11:22:27.800Z,7.60
2017-12-05T11:24:55.498Z,7.60
2017-12-05T11:27:23.162Z,7.60
2017-12-05T11:29:50.916Z,7.60
2017-12-05T11:32:18.537Z,7.70
2017-12-05T11:34:46.180Z,7.70
2017-12-05T11:37:14.533Z,7.80
2017-12-05T11:39:42.216Z,7.80
2017-12-05T11:42:10.486Z,7.70
2017-12-05T11:44:38.244Z,7.70
2017-12-05T11:47:05.938Z,7.70
2017-12-05T11:49:33.924Z,7.60
2017-12-05T11:52:01.619Z,7.70
2017-12-05T11:54:30.030Z,7.90
2017-12-05T11:56:57.716Z,7.90
2017-12-05T11:59:25.465Z,7.90
2017-12-05T12:01:53.144Z,7.90
2017-12-05T12:04:20.779Z,7.90
2017-12-05T12:06:48.399Z,7.90
2017-12-05T12:09:16.079Z,7.90
2017-12-05T12:11:43.739Z,8.00
2017-12-05T12:14:12.144Z,7.90
2017-12-05T12:16:39.801Z,7.90
2017-12-05T12:19:07.471Z,7.80
2017-12-05T12:21:35.659Z,7.90
2017-12-05T12:24:03.392Z,8.00
2017-12-05T12:26:31.129Z,8.10
2017-12-05T12:28:58.757Z,8.00
2017-12-05T12:31:26.497Z,8.00
2017-12-05T12:33:54.177Z,7.90
2017-12-05T12:36:21.825Z,8.00
2017-12-05T12:38:49.512Z,8.10
2017-12-05T12:41:17.280Z,8.00
2017-12-05T12:43:44.955Z,7.90
2017-12-05T12:46:12.647Z,7.80
2017-12-05T12:48:40.287Z,7.70
2017-12-05T12:51:08.054Z,7.70
2017-12-05T12:53:35.731Z,7.70
2017-12-05T12:56:04.248Z,7.80
2017-12-05T12:58:32.182Z,7.80
2017-12-05T13:00:59.885Z,7.80
2017-12-05T13:03:27.522Z,7.90
2017-12-05T13:05:55.203Z,7.90
2017-12-05T13:08:22.808Z,7.90
2017-12-05T13:10:50.402Z,7.80
2017-12-05T13:13:18.083Z,7.90
2017-12-05T13:15:45.828Z,7.90
2017-12-05T13:18:13.442Z,7.90
2017-12-05T13:20:41.083Z,7.90
2017-12-05T13:23:09.497Z,7.90
2017-12-05T13:25:37.193Z,7.90
2017-12-05T13:28:04.798Z,8.00
2017-12-05T13:30:33.299Z,7.90
2017-12-05T13:33:01.696Z,7.90
2017-12-05T13:35:30.046Z,8.00
2017-12-05T13:37:57.734Z,7.90
2017-12-05T13:40:25.453Z,8.00
2017-12-05T13:42:53.158Z,8.00
2017-12-05T13:45:20.875Z,8.00
2017-12-05T13:47:48.565Z,8.00
2017-12-05T13:50:16.279Z,8.00
2017-12-05T13:52:43.907Z,7.90
2017-12-05T13:55:12.362Z,8.10
2017-12-05T13:57:39.964Z,8.00
2017-12-05T14:00:08.480Z,8.00
2017-12-05T14:02:36.239Z,8.00
2017-12-05T14:05:03.987Z,8.00
2017-12-05T14:07:31.647Z,8.00
2017-12-05T14:09:59.263Z,8.00
2017-12-05T14:12:27.323Z,8.00
2017-12-05T14:14:55.026Z,7.80
2017-12-05T14:17:23.455Z,7.90
2017-12-05T14:19:51.176Z,7.90
2017-12-05T14:22:19.666Z,7.90
2017-12-05T14:24:47.374Z,7.90
2017-12-05T14:27:14.997Z,8.00
2017-12-05T14:29:42.616Z,8.00
2017-12-05T14:32:10.220Z,8.00
2017-12-05T14:34:37.911Z,8.10
2017-12-05T14:37:05.670Z,8.10
2017-12-05T14:39:33.331Z,8.10
2017-12-05T14:42:00.979Z,8.20
2017-12-05T14:44:28.735Z,8.00
2017-12-05T14:46:56.580Z,8.00
2017-12-05T14:49:25.034Z,8.00
2017-12-05T14:51:52.708Z,8.00
2017-12-05T14:54:20.355Z,8.00
2017-12-05T14:56:48.081Z,7.90
2017-12-05T14:59:15.726Z,7.90
2017-12-05T15:01:43.440Z,7.90
2017-12-05T15:04:11.120Z,7.90
2017-12-05T15:06:38.958Z,7.90
2017-12-05T15:09:06.559Z,7.90
2017-12-05T15:11:35.193Z,7.80
2017-12-05T15:14:02.979Z,7.80
2017-12-05T15:16:30.788Z,7.70
2017-12-05T15:18:58.447Z,7.70
2017-12-05T15:21:26.124Z,7.70
2017-12-05T15:23:53.853Z,7.70
2017-12-05T15:26:21.700Z,7.70
2017-12-05T15:28:50.113Z,7.80
2017-12-05T15:31:18.658Z,7.90
2017-12-05T15:33:46.342Z,7.90
2017-12-05T15:36:14.098Z,7.80
2017-12-05T15:38:41.714Z,7.80
2017-12-05T15:41:09.370Z,7.80
2017-12-05T15:43:37.128Z,7.80
2017-12-05T15:46:04.865Z,7.80
2017-12-05T15:48:32.601Z,7.80
2017-12-05T15:51:00.270Z,7.80
2017-12-05T15:53:28.028Z,7.70
2017-12-05T15:55:56.539Z,7.70
2017-12-05T15:58:24.205Z,7.70
2017-12-05T16:00:52.071Z,7.70
2017-12-05T16:03:19.753Z,7.70
2017-12-05T16:05:48.202Z,7.60
2017-12-05T16:08:15.944Z,7.60
2017-12-05T16:10:47.301Z,7.70
2017-12-05T16:13:16.044Z,7.70
2017-12-05T16:15:43.645Z,7.70
2017-12-05T16:18:12.099Z,7.60
2017-12-05T16:20:39.690Z,7.60
2017-12-05T16:23:07.704Z,7.70
2017-12-05T16:25:35.295Z,7.50
2017-12-05T16:28:02.985Z,7.60
2017-12-05T16:30:30.621Z,7.70
2017-12-05T16:32:58.297Z,7.70
2017-12-05T16:35:26.687Z,7.90
2017-12-05T16:37:54.360Z,7.80
2017-12-05T16:40:22.004Z,7.90
2017-12-05T16:42:49.704Z,7.80
2017-12-05T16:45:17.344Z,7.80
2017-12-05T16:47:45.029Z,7.80
2017-12-05T16:50:12.655Z,7.80
2017-12-05T16:52:40.398Z,7.70
2017-12-05T16:55:07.985Z,7.80
2017-12-05T16:57:35.648Z,7.80
2017-12-05T17:00:03.314Z,7.80
2017-12-05T17:02:31.030Z,7.80
2017-12-05T17:04:58.716Z,7.80
2017-12-05T17:07:27.154Z,7.80
2017-12-05T17:09:54.831Z,7.80
2017-12-05T17:12:22.669Z,7.80
2017-12-05T17:14:50.292Z,7.70
2017-12-05T17:17:19.784Z,7.70
2017-12-05T17:19:51.088Z,7.70
2017-12-05T17:22:18.861Z,7.70
2017-12-05T17:24:46.525Z,7.80
2017-12-05T17:27:14.226Z,7.80
2017-12-05T17:29:41.888Z,7.80
2017-12-05T17:32:09.512Z,7.80
2017-12-05T17:34:37.296Z,7.70
2017-12-05T17:37:05.859Z,7.70
2017-12-05T17:39:33.651Z,7.70
2017-12-05T17:42:01.331Z,7.70
2017-12-05T17:44:28.975Z,7.70
2017-12-05T17:46:56.705Z,7.80
2017-12-05T17:49:24.360Z,7.80
2017-12-05T17:51:52.232Z,7.80
2017-12-05T17:54:19.934Z,7.80
2017-12-05T17:56:47.689Z,7.60
2017-12-05T17:59:16.259Z,7.60
2017-12-05T18:01:44.482Z,7.60
2017-12-05T18:04:12.248Z,7.50
2017-12-05T18:06:39.930Z,7.50
2017-12-05T18:09:07.538Z,7.60
2017-12-05T18:11:35.219Z,7.70
2017-12-05T18:14:02.914Z,7.70
2017-12-05T18:16:30.630Z,7.60
2017-12-05T18:18:58.565Z,7.60
2017-12-05T18:21:26.338Z,7.60
2017-12-05T18:23:54.221Z,7.60
2017-12-05T18:26:22.703Z,7.70
2017-12-05T18:28:50.324Z,7.70
2017-12-05T18:31:18.023Z,7.80
2017-12-05T18:33:45.713Z,7.70
2017-12-05T18:36:13.415Z,7.60
2017-12-05T18:38:41.116Z,7.60
2017-12-05T18:41:08.782Z,7.50
2017-12-05T18:43:36.431Z,7.60
2017-12-05T18:46:04.105Z,7.60
2017-12-05T18:48:31.829Z,7.50
2017-12-05T18:50:59.455Z,7.50
2017-12-05T18:53:27.137Z,7.50
2017-12-05T18:55:55.758Z,7.50
2017-12-05T18:58:23.459Z,7.50
2017-12-05T19:00:51.106Z,7.60
2017-12-05T19:03:18.853Z,7.60
2017-12-05T19:05:46.486Z,7.70
2017-12-05T19:08:15.573Z,7.80
2017-12-05T19:10:43.289Z,7.80
2017-12-05T19:13:11.031Z,7.80
2017-12-05T19:15:38.923Z,7.90
2017-12-05T19:18:06.590Z,7.90
2017-12-05T19:20:34.336Z,7.80
2017-12-05T19:23:02.010Z,7.90
2017-12-05T19:25:30.430Z,7.90
2017-12-05T19:27:58.161Z,7.70
2017-12-05T19:30:26.619Z,7.60
2017-12-05T19:32:54.302Z,7.60
2017-12-05T19:35:22.776Z,7.40
2017-12-05T19:37:50.480Z,7.40
2017-12-05T19:40:18.203Z,7.40
2017-12-05T19:42:45.909Z,7.50
2017-12-05T19:45:13.668Z,7.50
2017-12-05T19:47:41.290Z,7.60
2017-12-05T19:50:08.923Z,7.50
2017-12-05T19:52:36.597Z,7.60
2017-12-05T19:55:04.273Z,7.50
2017-12-05T19:57:31.994Z,7.50
2017-12-05T19:59:59.770Z,7.60
2017-12-05T20:02:27.393Z,7.60
2017-12-05T20:04:55.018Z,7.60
2017-12-05T20:07:22.775Z,7.50
2017-12-05T20:09:50.500Z,7.60
2017-12-05T20:12:18.117Z,7.50
2017-12-05T20:14:46.024Z,7.50
2017-12-05T20:17:13.896Z,7.50
2017-12-05T20:19:41.585Z,7.50
2017-12-05T20:22:09.499Z,7.60
2017-12-05T20:24:37.348Z,7.60
2017-12-05T20:27:05.066Z,7.60
2017-12-05T20:29:32.813Z,7.60
2017-12-05T20:32:00.529Z,7.60
2017-12-05T20:34:28.213Z,7.60
2017-12-05T20:36:55.922Z,7.60
2017-12-05T20:39:23.795Z,7.70
2017-12-05T20:41:51.574Z,7.70
2017-12-05T20:44:19.267Z,7.70
2017-12-05T20:46:47.856Z,7.80
2017-12-05T20:49:15.506Z,7.80
2017-12-05T20:51:43.356Z,7.70
2017-12-05T20:54:11.066Z,7.70
2017-12-05T20:56:38.694Z,7.70
2017-12-05T20:59:06.640Z,7.70
2017-12-05T21:01:34.222Z,7.70
2017-12-05T21:04:01.946Z,7.70
2017-12-05T21:06:29.647Z,7.60
2017-12-05T21:08:57.361Z,7.70
2017-12-05T21:11:25.084Z,7.70
2017-12-05T21:13:52.825Z,7.70
2017-12-05T21:16:20.460Z,7.60
2017-12-05T21:18:48.998Z,7.60
2017-12-05T21:21:17.439Z,7.50
2017-12-05T21:23:45.083Z,7.50
2017-12-05T21:26:12.734Z,7.50
2017-12-05T21:28:40.498Z,7.50
2017-12-05T21:31:08.107Z,7.60
2017-12-05T21:33:36.612Z,7.60
2017-12-05T21:36:05.004Z,7.70
2017-12-05T21:38:32.623Z,7.70
2017-12-05T21:41:01.076Z,7.70
2017-12-05T21:43:28.704Z,7.60
2017-12-05T21:45:57.102Z,7.50
2017-12-05T21:48:24.756Z,7.50
2017-12-05T21:50:52.422Z,7.40
2017-12-05T21:53:20.087Z,7.50
2017-12-05T21:55:47.725Z,7.50
2017-12-05T21:58:15.425Z,7.50
2017-12-05T22:00:43.106Z,7.60
2017-12-05T22:03:10.842Z,7.60
2017-12-05T22:05:38.467Z,7.60
2017-12-05T22:08:06.099Z,7.60
2017-12-05T22:10:33.778Z,7.50
2017-12-05T22:13:01.430Z,7.50
2017-12-05T22:15:29.099Z,7.50
2017-12-05T22:17:56.833Z,7.60
2017-12-05T22:20:25.212Z,7.70
2017-12-05T22:22:53.710Z,7.70
2017-12-05T22:25:21.385Z,7.70
2017-12-05T22:27:49.048Z,7.70
2017-12-05T22:30:16.682Z,7.70
2017-12-05T22:32:44.280Z,7.60
2017-12-05T22:35:11.958Z,7.60
2017-12-05T22:37:39.623Z,7.60
2017-12-05T22:40:07.429Z,7.60
2017-12-05T22:42:35.144Z,7.60
2017-12-05T22:45:02.946Z,7.60
2017-12-05T22:47:30.577Z,7.60
2017-12-05T22:49:58.248Z,7.50
2017-12-05T22:52:25.993Z,7.50
2017-12-05T22:54:53.589Z,7.50
2017-12-05T22:57:21.195Z,7.50
2017-12-05T22:59:48.847Z,7.50
2017-12-05T23:02:16.493Z,7.50
2017-12-05T23:04:45.367Z,7.40
2017-12-05T23:07:13.793Z,7.50
2017-12-05T23:09:41.451Z,7.50
2017-12-05T23:12:09.069Z,7.50
2017-12-05T23:14:36.727Z,7.40
2017-12-05T23:17:05.206Z,7.40
2017-12-05T23:19:32.865Z,7.40
2017-12-05T23:22:00.509Z,7.50
2017-12-05T23:24:28.117Z,7.40
2017-12-05T23:26:55.785Z,7.40
2017-12-05T23:29:23.433Z,7.40
2017-12-05T23:31:51.816Z,7.40
2017-12-05T23:34:20.217Z,7.50
2017-12-05T23:36:47.881Z,7.40
2017-12-05T23:39:15.524Z,7.50
2017-12-05T23:41:43.212Z,7.50
2017-12-05T23:44:10.831Z,7.50
2017-12-05T23:46:38.457Z,7.50
2017-12-05T23:49:06.056Z,7.50
2017-12-05T23:51:33.750Z,7.50
2017-12-05T23:54:01.398Z,7.40
2017-12-05T23:56:29.747Z,7.40
2017-12-05T23:58:57.396Z,7.40
